createdAt,value
2018-04-25T00:01:33.423Z,68.34
2018-04-25T00:04:01.771Z,68.29
2018-04-25T00:06:30.049Z,69.94
2018-04-25T00:08:58.325Z,69.30
2018-04-25T00:11:26.601Z,69.61
2018-04-25T00:13:54.875Z,70.32
2018-04-25T00:16:23.204Z,69.17
2018-04-25T00:18:52.265Z,69.53
2018-04-25T00:21:20.552Z,69.75
2018-04-25T00:23:48.850Z,69.02
2018-04-25T00:26:17.883Z,69.24
2018-04-25T00:28:46.162Z,69.58
2018-04-25T00:31:14.446Z,70.23
2018-04-25T00:33:42.710Z,70.73
2018-04-25T00:36:11.777Z,70.02
2018-04-25T00:38:40.795Z,70.24
2018-04-25T00:41:09.401Z,69.10
2018-04-25T00:43:37.668Z,69.26
2018-04-25T00:46:05.948Z,68.65
2018-04-25T00:48:34.229Z,68.12
2018-04-25T00:51:02.567Z,69.05
2018-04-25T00:53:30.779Z,69.24
2018-04-25T00:55:59.049Z,68.96
2018-04-25T00:58:27.310Z,68.35
2018-04-25T01:00:55.621Z,67.55
2018-04-25T01:03:23.896Z,68.14
2018-04-25T01:05:52.193Z,68.81
2018-04-25T01:08:21.217Z,68.02
2018-04-25T01:10:49.507Z,68.42
2018-04-25T01:13:17.827Z,67.93
2018-04-25T01:15:46.900Z,68.60
2018-04-25T01:18:15.154Z,66.97
2018-04-25T01:20:43.455Z,67.18
2018-04-25T01:23:12.325Z,67.77
2018-04-25T01:25:40.614Z,68.06
2018-04-25T01:28:13.644Z,67.40
2018-04-25T01:30:46.181Z,67.70
2018-04-25T01:39:18.782Z,68.80
2018-04-25T01:41:47.078Z,68.80
2018-04-25T01:44:22.169Z,68.85
2018-04-25T01:46:52.045Z,69.27
2018-04-25T01:49:25.278Z,68.70
2018-04-25T01:52:11.089Z,69.18
2018-04-25T01:54:56.905Z,69.61
2018-04-25T01:57:43.882Z,68.55
2018-04-25T02:00:29.865Z,69.37
2018-04-25T02:02:57.373Z,68.72
2018-04-25T02:05:25.782Z,68.21
2018-04-25T02:07:54.059Z,69.70
2018-04-25T02:10:22.315Z,68.66
2018-04-25T02:12:50.600Z,69.42
2018-04-25T02:15:18.854Z,69.59
2018-04-25T02:17:47.149Z,69.98
2018-04-25T02:20:15.431Z,69.89
2018-04-25T02:22:43.808Z,70.56
2018-04-25T02:25:12.084Z,69.69
2018-04-25T02:27:40.335Z,69.69
2018-04-25T02:30:08.627Z,69.81
2018-04-25T02:32:36.897Z,70.34
2018-04-25T02:35:05.189Z,70.19
2018-04-25T02:37:33.451Z,71.00
2018-04-25T02:40:01.737Z,70.79
2018-04-25T02:42:29.989Z,70.29
2018-04-25T02:44:58.278Z,71.18
2018-04-25T02:47:26.538Z,70.99
2018-04-25T02:49:54.840Z,71.04
2018-04-25T02:52:23.124Z,71.02
2018-04-25T02:54:51.429Z,70.66
2018-04-25T02:57:20.083Z,70.83
2018-04-25T02:59:48.361Z,71.21
2018-04-25T03:02:16.641Z,71.84
2018-04-25T03:04:45.004Z,71.47
2018-04-25T03:07:13.253Z,71.90
2018-04-25T03:09:41.550Z,72.39
2018-04-25T03:12:09.872Z,71.70
2018-04-25T03:14:38.119Z,72.88
2018-04-25T03:17:06.399Z,72.24
2018-04-25T03:19:34.652Z,72.12
2018-04-25T03:22:02.926Z,72.75
2018-04-25T03:24:31.198Z,72.36
2018-04-25T03:26:59.475Z,72.67
2018-04-25T03:29:27.765Z,72.81
2018-04-25T03:31:56.159Z,73.01
2018-04-25T03:34:24.679Z,73.36
2018-04-25T03:36:52.940Z,72.48
2018-04-25T03:39:22.011Z,73.36
2018-04-25T03:41:50.270Z,73.55
2018-04-25T03:44:18.542Z,73.96
2018-04-25T03:46:46.878Z,72.93
2018-04-25T03:49:15.081Z,73.92
2018-04-25T03:51:43.353Z,73.60
2018-04-25T03:54:11.625Z,73.66
2018-04-25T03:56:39.918Z,73.71
2018-04-25T03:59:08.266Z,73.96
2018-04-25T04:01:36.468Z,74.38
2018-04-25T04:04:04.743Z,74.79
2018-04-25T04:06:33.026Z,73.84
2018-04-25T04:09:01.285Z,74.22
2018-04-25T04:11:29.548Z,74.40
2018-04-25T04:13:57.837Z,73.58
2018-04-25T04:16:26.535Z,73.76
2018-04-25T04:18:55.183Z,72.73
2018-04-25T04:21:23.456Z,73.58
2018-04-25T04:23:51.751Z,73.15
2018-04-25T04:26:20.034Z,73.06
2018-04-25T04:28:48.289Z,73.77
2018-04-25T04:31:16.581Z,73.41
2018-04-25T04:33:44.861Z,73.13
2018-04-25T04:36:13.164Z,72.21
2018-04-25T04:38:41.458Z,72.53
2018-04-25T04:41:10.597Z,72.04
2018-04-25T04:43:38.882Z,72.29
2018-04-25T04:46:07.146Z,72.35
2018-04-25T04:48:35.430Z,71.91
2018-04-25T04:51:03.709Z,72.14
2018-04-25T04:53:31.990Z,72.16
2018-04-25T04:56:00.242Z,72.85
2018-04-25T04:58:28.526Z,72.29
2018-04-25T05:00:56.782Z,71.53
2018-04-25T05:03:25.065Z,72.04
2018-04-25T05:05:53.318Z,72.01
2018-04-25T05:08:21.696Z,71.00
2018-04-25T05:10:49.988Z,71.00
2018-04-25T05:13:18.277Z,72.25
2018-04-25T05:15:46.576Z,71.72
2018-04-25T05:18:14.834Z,72.34
2018-04-25T05:20:43.093Z,72.85
2018-04-25T05:23:11.360Z,72.49
2018-04-25T05:25:39.632Z,73.49
2018-04-25T05:28:07.896Z,72.43
2018-04-25T05:30:37.137Z,72.37
2018-04-25T05:33:05.384Z,72.89
2018-04-25T05:35:33.767Z,73.30
2018-04-25T05:38:02.024Z,72.96
2018-04-25T05:40:30.315Z,73.46
2018-04-25T05:42:58.630Z,74.92
2018-04-25T05:45:26.932Z,74.29
2018-04-25T05:47:55.970Z,74.15
2018-04-25T05:50:24.450Z,74.69
2018-04-25T05:52:52.723Z,73.97
2018-04-25T05:55:20.999Z,72.90
2018-04-25T05:57:49.316Z,73.96
2018-04-25T06:00:17.586Z,73.21
2018-04-25T06:02:45.838Z,74.45
2018-04-25T06:05:14.106Z,74.12
2018-04-25T06:07:42.463Z,72.57
2018-04-25T06:10:10.766Z,72.45
2018-04-25T06:12:39.266Z,73.21
2018-04-25T06:15:07.509Z,70.37
2018-04-25T06:17:35.798Z,70.27
2018-04-25T06:20:04.229Z,70.25
2018-04-25T06:22:32.537Z,71.13
2018-04-25T06:25:00.887Z,71.69
2018-04-25T06:27:29.202Z,70.55
2018-04-25T06:29:57.590Z,69.85
2018-04-25T06:32:25.858Z,69.74
2018-04-25T06:34:54.632Z,69.07
2018-04-25T06:37:22.913Z,68.15
2018-04-25T06:39:51.275Z,68.22
2018-04-25T06:42:19.552Z,68.42
2018-04-25T06:44:48.658Z,68.74
2018-04-25T06:47:16.931Z,69.92
2018-04-25T06:49:45.204Z,69.30
2018-04-25T06:52:13.641Z,69.78
2018-04-25T06:54:42.979Z,68.49
2018-04-25T06:57:11.253Z,69.65
2018-04-25T06:59:39.680Z,67.64
2018-04-25T07:02:08.729Z,66.83
2018-04-25T07:04:37.015Z,65.40
2018-04-25T07:07:05.336Z,65.81
2018-04-25T07:09:33.684Z,64.88
2018-04-25T07:12:01.953Z,64.83
2018-04-25T07:14:30.351Z,64.42
2018-04-25T07:16:58.680Z,63.33
2018-04-25T07:19:26.968Z,62.52
2018-04-25T07:21:55.247Z,61.34
2018-04-25T07:24:23.550Z,63.17
2018-04-25T07:26:52.085Z,61.55
2018-04-25T07:29:20.460Z,61.51
2018-04-25T07:31:48.769Z,61.36
2018-04-25T07:34:17.042Z,60.61
2018-04-25T07:36:45.599Z,60.54
2018-04-25T07:39:13.877Z,60.55
2018-04-25T07:41:42.190Z,59.60
2018-04-25T07:44:10.450Z,58.99
2018-04-25T07:46:38.732Z,58.84
2018-04-25T07:49:06.988Z,58.24
2018-04-25T07:51:35.258Z,58.65
2018-04-25T07:54:03.555Z,57.34
2018-04-25T07:56:31.819Z,57.24
2018-04-25T07:59:00.195Z,57.60
2018-04-25T08:01:28.626Z,57.82
2018-04-25T08:03:56.971Z,57.06
2018-04-25T08:06:25.251Z,56.86
2018-04-25T08:08:53.555Z,58.44
2018-04-25T08:11:21.867Z,58.34
2018-04-25T08:14:07.913Z,57.78
2018-04-25T08:16:54.478Z,58.29
2018-04-25T08:19:40.372Z,57.55
2018-04-25T08:22:08.637Z,56.65
2018-04-25T08:24:37.001Z,57.18
2018-04-25T08:27:05.376Z,55.61
2018-04-25T08:29:33.629Z,55.33
2018-04-25T08:32:01.928Z,55.79
2018-04-25T08:34:30.195Z,54.06
2018-04-25T08:36:58.582Z,53.86
2018-04-25T08:39:26.850Z,52.87
2018-04-25T08:41:55.319Z,52.53
2018-04-25T08:44:23.621Z,51.99
2018-04-25T08:46:51.917Z,53.09
2018-04-25T08:49:20.272Z,51.85
2018-04-25T08:51:48.566Z,52.05
2018-04-25T08:54:17.018Z,50.55
2018-04-25T08:56:45.309Z,49.55
2018-04-25T08:59:13.595Z,48.02
2018-04-25T09:01:41.865Z,48.38
2018-04-25T09:04:10.130Z,47.24
2018-04-25T09:06:38.437Z,45.93
2018-04-25T09:09:06.686Z,46.10
2018-04-25T09:11:34.958Z,46.08
2018-04-25T09:14:03.319Z,46.76
2018-04-25T09:16:31.581Z,46.11
2018-04-25T09:18:59.847Z,45.71
2018-04-25T09:21:28.199Z,45.48
2018-04-25T09:23:57.231Z,45.90
2018-04-25T09:26:25.481Z,45.22
2018-04-25T09:28:54.071Z,45.64
2018-04-25T09:31:22.350Z,45.61
2018-04-25T09:33:50.624Z,44.69
2018-04-25T09:36:18.886Z,45.28
2018-04-25T09:38:47.201Z,43.99
2018-04-25T09:41:15.579Z,43.90
2018-04-25T09:43:43.881Z,43.97
2018-04-25T09:46:12.320Z,42.79
2018-04-25T09:48:40.689Z,40.90
2018-04-25T09:51:08.962Z,41.17
2018-04-25T09:53:37.227Z,40.26
2018-04-25T09:56:05.499Z,40.68
2018-04-25T09:58:33.777Z,40.27
2018-04-25T10:01:02.060Z,40.47
2018-04-25T10:03:30.328Z,41.33
2018-04-25T10:05:58.637Z,40.67
2018-04-25T10:08:26.911Z,41.06
2018-04-25T10:10:55.421Z,42.78
2018-04-25T10:13:23.670Z,43.40
2018-04-25T10:15:51.992Z,42.19
2018-04-25T10:18:21.038Z,43.30
2018-04-25T10:20:49.326Z,44.73
2018-04-25T10:23:17.613Z,45.83
2018-04-25T10:25:45.939Z,47.94
2018-04-25T10:28:14.208Z,47.61
2018-04-25T10:30:42.474Z,47.67
2018-04-25T10:33:10.775Z,48.38
2018-04-25T10:35:39.057Z,48.26
2018-04-25T10:38:07.370Z,49.37
2018-04-25T10:40:35.653Z,48.90
2018-04-25T10:43:03.964Z,49.22
2018-04-25T10:45:32.285Z,48.09
2018-04-25T10:48:00.868Z,49.17
2018-04-25T10:50:29.134Z,47.57
2018-04-25T10:52:57.391Z,48.39
2018-04-25T10:55:25.745Z,49.42
2018-04-25T10:57:58.038Z,49.24
2018-04-25T11:00:26.356Z,50.14
2018-04-25T11:02:54.612Z,50.02
2018-04-25T11:05:22.889Z,50.24
2018-04-25T11:07:51.153Z,50.69
2018-04-25T11:10:19.572Z,50.70
2018-04-25T11:12:47.890Z,51.10
2018-04-25T11:15:16.163Z,50.25
2018-04-25T11:17:44.512Z,50.80
2018-04-25T11:20:12.717Z,50.70
2018-04-25T11:22:41.018Z,49.49
2018-04-25T11:25:09.289Z,50.18
2018-04-25T11:27:37.554Z,49.44
2018-04-25T11:30:05.905Z,49.63
2018-04-25T11:32:34.148Z,48.48
2018-04-25T11:35:03.424Z,46.51
2018-04-25T11:37:31.690Z,42.03
2018-04-25T11:39:59.954Z,39.24
2018-04-25T11:42:28.275Z,37.74
2018-04-25T11:44:57.314Z,36.64
2018-04-25T11:47:25.789Z,37.52
2018-04-25T11:49:54.045Z,36.09
2018-04-25T11:52:22.310Z,35.48
2018-04-25T11:54:50.569Z,36.61
2018-04-25T11:57:19.621Z,36.07
2018-04-25T11:59:47.898Z,35.30
2018-04-25T12:02:16.170Z,35.79
2018-04-25T12:04:44.493Z,37.31
2018-04-25T12:07:13.016Z,36.77
2018-04-25T12:09:41.268Z,39.52
2018-04-25T12:12:09.560Z,42.52
2018-04-25T12:14:38.048Z,42.60
2018-04-25T12:17:06.720Z,43.11
2018-04-25T12:19:35.014Z,44.48
2018-04-25T12:22:03.290Z,44.76
2018-04-25T12:24:31.579Z,45.11
2018-04-25T12:26:59.841Z,45.39
2018-04-25T12:29:28.139Z,45.27
2018-04-25T12:31:56.499Z,46.49
2018-04-25T12:34:24.786Z,47.13
2018-04-25T12:36:53.061Z,48.05
2018-04-25T12:39:21.386Z,47.99
2018-04-25T12:41:49.679Z,48.91
2018-04-25T12:44:17.987Z,50.58
2018-04-25T12:46:46.268Z,52.30
2018-04-25T12:49:14.589Z,52.05
2018-04-25T12:51:42.875Z,51.82
2018-04-25T12:54:11.357Z,52.37
2018-04-25T12:56:39.651Z,50.82
2018-04-25T12:59:07.992Z,49.20
2018-04-25T13:01:37.107Z,48.58
2018-04-25T13:04:05.307Z,48.15
2018-04-25T13:06:33.567Z,48.72
2018-04-25T13:09:02.114Z,49.90
2018-04-25T13:11:31.182Z,50.24
2018-04-25T13:13:59.497Z,51.39
2018-04-25T13:16:27.929Z,51.69
2018-04-25T13:18:56.253Z,51.34
2018-04-25T13:21:24.589Z,52.29
2018-04-25T13:23:52.828Z,52.05
2018-04-25T13:26:21.076Z,52.60
2018-04-25T13:28:49.422Z,53.43
2018-04-25T13:31:17.632Z,52.76
2018-04-25T13:33:45.937Z,52.89
2018-04-25T13:36:14.602Z,53.20
2018-04-25T13:38:42.879Z,51.94
2018-04-25T13:41:11.160Z,52.04
2018-04-25T13:43:39.441Z,52.96
2018-04-25T13:46:07.717Z,53.28
2018-04-25T13:48:36.026Z,53.18
2018-04-25T13:51:05.151Z,52.56
2018-04-25T13:53:33.430Z,52.08
2018-04-25T13:56:01.837Z,51.87
2018-04-25T13:58:30.161Z,51.47
2018-04-25T14:00:59.199Z,52.62
2018-04-25T14:03:27.673Z,51.71
2018-04-25T14:05:55.953Z,53.14
2018-04-25T14:08:24.232Z,52.64
2018-04-25T14:10:52.528Z,51.51
2018-04-25T14:13:20.804Z,51.21
2018-04-25T14:15:49.071Z,51.02
2018-04-25T14:18:17.781Z,51.39
2018-04-25T14:20:46.071Z,49.86
2018-04-25T14:23:15.106Z,48.99
2018-04-25T14:25:43.402Z,49.40
2018-04-25T14:28:11.655Z,49.70
2018-04-25T14:30:40.137Z,48.05
2018-04-25T14:33:08.419Z,47.42
2018-04-25T14:35:36.877Z,46.75
2018-04-25T14:38:05.149Z,47.17
2018-04-25T14:40:33.420Z,46.30
2018-04-25T14:43:01.819Z,45.56
2018-04-25T14:45:30.084Z,45.02
2018-04-25T14:47:58.380Z,44.44
2018-04-25T14:50:26.643Z,45.44
2018-04-25T14:52:55.755Z,44.51
2018-04-25T14:55:24.021Z,45.45
2018-04-25T14:57:52.325Z,46.78
2018-04-25T15:00:20.901Z,47.49
2018-04-25T15:02:49.272Z,47.35
2018-04-25T15:05:17.545Z,47.47
2018-04-25T15:07:45.799Z,48.42
2018-04-25T15:10:14.089Z,50.27
2018-04-25T15:12:42.365Z,48.26
2018-04-25T15:15:10.681Z,47.98
2018-04-25T15:17:39.726Z,47.98
2018-04-25T15:20:08.031Z,47.80
2018-04-25T15:22:36.403Z,47.26
2018-04-25T15:25:04.733Z,47.83
2018-04-25T15:27:33.022Z,46.30
2018-04-25T15:30:01.318Z,46.41
2018-04-25T15:32:29.611Z,45.43
2018-04-25T15:34:58.080Z,44.99
2018-04-25T15:37:26.374Z,43.79
2018-04-25T15:39:54.797Z,43.08
2018-04-25T15:42:23.154Z,42.18
2018-04-25T15:44:51.501Z,42.55
2018-04-25T15:47:20.593Z,42.19
2018-04-25T15:49:48.869Z,42.74
2018-04-25T15:52:17.183Z,43.14
2018-04-25T15:54:45.484Z,43.15
2018-04-25T15:57:13.767Z,42.40
2018-04-25T15:59:42.045Z,42.48
2018-04-25T16:02:10.349Z,42.88
2018-04-25T16:04:38.637Z,41.40
2018-04-25T16:07:06.926Z,42.15
2018-04-25T16:09:35.942Z,42.50
2018-04-25T16:12:04.227Z,42.96
2018-04-25T16:14:32.497Z,43.31
2018-04-25T16:17:00.861Z,43.67
2018-04-25T16:19:29.082Z,44.18
2018-04-25T16:21:57.373Z,45.43
2018-04-25T16:24:25.657Z,45.51
2018-04-25T16:26:54.700Z,44.68
2018-04-25T16:29:22.972Z,43.62
2018-04-25T16:31:51.257Z,45.15
2018-04-25T16:34:19.788Z,45.87
2018-04-25T16:36:48.837Z,46.68
2018-04-25T16:39:21.375Z,45.04
2018-04-25T16:41:49.683Z,44.24
2018-04-25T16:44:17.984Z,44.14
2018-04-25T16:46:46.270Z,44.38
2018-04-25T16:49:15.213Z,45.32
2018-04-25T16:51:43.524Z,45.17
2018-04-25T16:54:11.801Z,45.58
2018-04-25T16:56:40.079Z,47.29
2018-04-25T16:59:08.329Z,45.99
2018-04-25T17:01:36.663Z,46.23
2018-04-25T17:04:05.703Z,45.54
2018-04-25T17:06:34.012Z,46.26
2018-04-25T17:09:02.293Z,46.64
2018-04-25T17:11:31.634Z,46.12
2018-04-25T17:13:59.889Z,46.63
2018-04-25T17:16:28.153Z,47.90
2018-04-25T17:18:57.198Z,47.29
2018-04-25T17:21:25.559Z,46.77
2018-04-25T17:23:54.342Z,47.29
2018-04-25T17:26:23.900Z,47.80
2018-04-25T17:28:58.069Z,50.55
2018-04-25T17:31:26.659Z,52.13
2018-04-25T17:33:55.132Z,52.65
2018-04-25T17:36:23.799Z,55.11
2018-04-25T17:38:52.663Z,55.90
2018-04-25T17:41:21.441Z,56.10
2018-04-25T17:43:51.104Z,56.75
2018-04-25T17:46:20.298Z,56.54
2018-04-25T17:48:48.922Z,57.09
2018-04-25T17:51:18.243Z,57.34
2018-04-25T17:53:46.959Z,57.30
2018-04-25T17:56:15.544Z,57.96
2018-04-25T17:58:44.336Z,60.34
2018-04-25T18:01:14.361Z,61.53
2018-04-25T18:03:42.693Z,62.22
2018-04-25T18:06:15.115Z,62.66
2018-04-25T18:08:43.620Z,63.50
2018-04-25T18:11:12.977Z,64.27
2018-04-25T18:13:44.675Z,65.04
2018-04-25T18:16:17.652Z,64.73
2018-04-25T18:18:46.272Z,66.21
2018-04-25T18:21:14.840Z,66.44
2018-04-25T18:23:45.004Z,67.99
2018-04-25T18:26:13.546Z,68.94
2018-04-25T18:28:42.784Z,69.01
2018-04-25T18:33:41.911Z,71.00
2018-04-25T18:36:10.783Z,70.81
2018-04-25T18:38:39.276Z,71.18
2018-04-25T18:41:07.750Z,71.47
2018-04-25T18:43:36.279Z,71.07
2018-04-25T18:46:04.888Z,70.61
2018-04-25T18:48:33.438Z,70.23
2018-04-25T18:51:01.883Z,70.44
2018-04-25T18:53:34.030Z,70.70
2018-04-25T18:56:02.317Z,70.03
2018-04-25T18:58:30.617Z,69.72
2018-04-25T19:00:59.691Z,70.35
2018-04-25T19:03:28.167Z,70.01
2018-04-25T19:05:56.709Z,70.21
2018-04-25T19:08:25.054Z,69.98
2018-04-25T19:10:53.553Z,69.83
2018-04-25T19:13:22.682Z,68.79
2018-04-25T19:15:51.064Z,69.50
2018-04-25T19:18:19.776Z,69.32
2018-04-25T19:20:48.054Z,69.34
2018-04-25T19:23:16.376Z,69.13
2018-04-25T19:25:44.678Z,69.77
2018-04-25T19:28:12.977Z,69.71
2018-04-25T19:30:41.355Z,69.05
2018-04-25T19:33:09.616Z,69.50
2018-04-25T19:35:37.925Z,69.40
2018-04-25T19:38:06.241Z,69.60
2018-04-25T19:40:34.640Z,69.87
2018-04-25T19:43:02.906Z,70.34
2018-04-25T19:45:31.280Z,69.98
2018-04-25T19:47:59.547Z,70.59
2018-04-25T19:50:27.840Z,71.06
2018-04-25T19:52:56.117Z,73.38
2018-04-25T19:55:24.397Z,73.67
2018-04-25T19:57:52.668Z,74.00
2018-04-25T20:00:20.979Z,73.71
2018-04-25T20:02:49.314Z,73.96
2018-04-25T20:05:17.589Z,75.95
2018-04-25T20:07:45.947Z,75.51
2018-04-25T20:10:14.213Z,75.05
2018-04-25T20:12:42.506Z,75.27
2018-04-25T20:15:10.801Z,75.84
2018-04-25T20:17:39.065Z,75.45
2018-04-25T20:20:07.387Z,74.64
2018-04-25T20:22:35.683Z,76.73
2018-04-25T20:25:04.894Z,77.18
2018-04-25T20:27:36.448Z,77.16
2018-04-25T20:30:04.820Z,77.41
2018-04-25T20:32:33.853Z,78.00
2018-04-25T20:35:02.128Z,78.90
2018-04-25T20:37:30.423Z,80.51
2018-04-25T20:39:58.721Z,79.79
2018-04-25T20:42:27.778Z,80.46
2018-04-25T20:44:56.079Z,80.30
2018-04-25T20:47:24.359Z,80.24
2018-04-25T20:49:53.554Z,80.54
2018-04-25T20:52:21.911Z,81.38
2018-04-25T20:54:50.522Z,81.91
2018-04-25T20:57:19.679Z,82.99
2018-04-25T20:59:48.400Z,81.98
2018-04-25T21:02:17.503Z,83.46
2018-04-25T21:04:45.758Z,83.39
2018-04-25T21:07:14.021Z,83.98
2018-04-25T21:09:42.304Z,84.72
2018-04-25T21:12:10.604Z,85.01
2018-04-25T21:14:39.646Z,82.23
2018-04-25T21:17:07.932Z,82.93
2018-04-25T21:19:36.205Z,83.88
2018-04-25T21:22:04.475Z,83.82
2018-04-25T21:24:32.753Z,84.42
2018-04-25T21:27:01.060Z,83.00
2018-04-25T21:29:29.346Z,82.36
2018-04-25T21:31:58.375Z,82.92
2018-04-25T21:34:26.736Z,84.33
2018-04-25T21:36:55.106Z,83.03
2018-04-25T21:39:24.226Z,82.96
2018-04-25T21:41:52.829Z,83.29
2018-04-25T21:44:21.090Z,83.84
2018-04-25T21:46:49.383Z,83.63
2018-04-25T21:49:17.659Z,83.10
2018-04-25T21:51:45.959Z,82.50
2018-04-25T21:54:14.227Z,83.18
2018-04-25T21:56:42.544Z,83.74
2018-04-25T21:59:10.862Z,84.54
2018-04-25T22:01:39.180Z,83.51
2018-04-25T22:04:08.397Z,83.68
2018-04-25T22:06:36.678Z,85.24
2018-04-25T22:09:04.956Z,85.16
2018-04-25T22:11:33.218Z,84.23
2018-04-25T22:14:01.559Z,84.60
2018-04-25T22:16:29.855Z,84.64
2018-04-25T22:18:58.899Z,84.63
2018-04-25T22:21:27.158Z,84.22
2018-04-25T22:23:55.441Z,84.75
2018-04-25T22:26:23.736Z,85.98
2018-04-25T22:28:52.046Z,86.32
2018-04-25T22:31:21.106Z,86.49
2018-04-25T22:33:49.389Z,85.73
2018-04-25T22:36:17.679Z,86.28
2018-04-25T22:38:45.969Z,86.49
2018-04-25T22:41:15.041Z,87.07
2018-04-25T22:43:43.281Z,87.43
2018-04-25T22:46:11.555Z,86.49
2018-04-25T22:48:39.835Z,84.81
2018-04-25T22:51:08.132Z,85.08
2018-04-25T22:53:36.387Z,84.97
2018-04-25T22:56:04.686Z,85.44
2018-04-25T22:58:32.990Z,85.89
2018-04-25T23:01:02.003Z,86.47
2018-04-25T23:03:30.280Z,86.53
2018-04-25T23:05:59.052Z,86.33
2018-04-25T23:08:27.324Z,87.21
2018-04-25T23:10:55.637Z,85.69
2018-04-25T23:13:23.909Z,86.50
2018-04-25T23:15:52.194Z,86.56
2018-04-25T23:18:20.457Z,85.67
2018-04-25T23:20:48.727Z,86.09
2018-04-25T23:23:17.005Z,85.55
2018-04-25T23:25:45.285Z,86.73
2018-04-25T23:28:13.551Z,86.20
2018-04-25T23:30:41.822Z,86.09
2018-04-25T23:33:10.200Z,85.82
2018-04-25T23:35:38.459Z,86.41
2018-04-25T23:38:06.751Z,85.65
2018-04-25T23:40:35.034Z,84.91
2018-04-25T23:43:03.756Z,85.78
2018-04-25T23:45:32.025Z,86.06
2018-04-25T23:48:00.301Z,85.32
2018-04-25T23:50:28.563Z,84.66
2018-04-25T23:52:57.583Z,83.91
2018-04-25T23:55:26.084Z,83.18
2018-04-25T23:57:55.107Z,82.56
